sensor_id;sensor_type;location;lat;lon;timestamp;P1;durP1;ratioP1;P2;durP2;ratioP2
34988;SDS011;21192;40.182;44.516;2023-02-15T00:00:21;63.05;;;26.67;;
34988;SDS011;21192;40.182;44.516;2023-02-15T00:02:47;72.30;;;26.92;;
34988;SDS011;21192;40.182;44.516;2023-02-15T00:05:13;64.22;;;25.65;;
34988;SDS011;21192;40.182;44.516;2023-02-15T00:07:39;55.05;;;20.25;;
34988;SDS011;21192;40.182;44.516;2023-02-15T00:10:06;58.60;;;16.55;;
34988;SDS011;21192;40.182;44.516;2023-02-15T00:12:32;34.97;;;11.88;;
34988;SDS011;21192;40.182;44.516;2023-02-15T01:31:50;17.83;;;6.78;;
34988;SDS011;21192;40.182;44.516;2023-02-15T01:37:06;16.67;;;5.40;;
34988;SDS011;21192;40.182;44.516;2023-02-15T01:39:32;15.52;;;5.85;;
34988;SDS011;21192;40.182;44.516;2023-02-15T01:41:57;15.20;;;5.63;;
34988;SDS011;21192;40.182;44.516;2023-02-15T01:47:08;12.73;;;4.95;;
34988;SDS011;21192;40.182;44.516;2023-02-15T01:49:37;13.18;;;5.40;;
34988;SDS011;21192;40.182;44.516;2023-02-15T01:52:08;13.27;;;5.28;;
34988;SDS011;21192;40.182;44.516;2023-02-15T01:54:37;14.18;;;5.78;;
34988;SDS011;21192;40.182;44.516;2023-02-15T01:57:07;13.88;;;5.75;;
34988;SDS011;21192;40.182;44.516;2023-02-15T01:59:39;17.13;;;5.43;;
34988;SDS011;21192;40.182;44.516;2023-02-15T02:02:08;18.20;;;6.53;;
34988;SDS011;21192;40.182;44.516;2023-02-15T02:04:41;19.08;;;6.60;;
34988;SDS011;21192;40.182;44.516;2023-02-15T02:07:13;16.15;;;6.82;;
34988;SDS011;21192;40.182;44.516;2023-02-15T02:09:42;15.27;;;6.13;;
34988;SDS011;21192;40.182;44.516;2023-02-15T02:12:09;13.85;;;6.50;;
34988;SDS011;21192;40.182;44.516;2023-02-15T02:14:36;19.65;;;7.80;;
34988;SDS011;21192;40.182;44.516;2023-02-15T02:30:57;19.98;;;7.18;;
34988;SDS011;21192;40.182;44.516;2023-02-15T02:42:01;23.90;;;8.57;;
34988;SDS011;21192;40.182;44.516;2023-02-15T02:49:58;14.70;;;5.88;;
34988;SDS011;21192;40.182;44.516;2023-02-15T02:55:03;18.83;;;6.85;;
34988;SDS011;21192;40.182;44.516;2023-02-15T03:05:59;13.75;;;6.30;;
34988;SDS011;21192;40.182;44.516;2023-02-15T03:08:33;13.68;;;6.05;;
34988;SDS011;21192;40.182;44.516;2023-02-15T03:11:03;15.13;;;5.60;;
34988;SDS011;21192;40.182;44.516;2023-02-15T03:13:29;11.82;;;5.10;;
34988;SDS011;21192;40.182;44.516;2023-02-15T03:15:57;14.40;;;5.60;;
34988;SDS011;21192;40.182;44.516;2023-02-15T03:18:48;26.88;;;11.93;;
34988;SDS011;21192;40.182;44.516;2023-02-15T03:21:21;55.80;;;19.83;;
34988;SDS011;21192;40.182;44.516;2023-02-15T03:23:53;52.28;;;20.38;;
34988;SDS011;21192;40.182;44.516;2023-02-15T03:26:24;46.97;;;21.58;;
34988;SDS011;21192;40.182;44.516;2023-02-15T03:28:53;47.25;;;20.80;;
34988;SDS011;21192;40.182;44.516;2023-02-15T03:31:22;51.53;;;22.40;;
34988;SDS011;21192;40.182;44.516;2023-02-15T03:33:58;49.53;;;21.50;;
34988;SDS011;21192;40.182;44.516;2023-02-15T03:39:22;45.22;;;19.55;;
34988;SDS011;21192;40.182;44.516;2023-02-15T03:45:02;52.83;;;20.83;;
34988;SDS011;21192;40.182;44.516;2023-02-15T03:47:36;45.47;;;20.13;;
34988;SDS011;21192;40.182;44.516;2023-02-15T03:50:09;44.00;;;18.38;;
34988;SDS011;21192;40.182;44.516;2023-02-15T03:52:59;53.03;;;19.35;;
34988;SDS011;21192;40.182;44.516;2023-02-15T03:55:27;50.33;;;19.83;;
34988;SDS011;21192;40.182;44.516;2023-02-15T03:57:53;43.13;;;18.13;;
34988;SDS011;21192;40.182;44.516;2023-02-15T04:00:39;49.83;;;19.15;;
34988;SDS011;21192;40.182;44.516;2023-02-15T04:03:33;47.15;;;19.67;;
34988;SDS011;21192;40.182;44.516;2023-02-15T04:06:05;54.83;;;19.92;;
34988;SDS011;21192;40.182;44.516;2023-02-15T04:08:31;47.13;;;19.67;;
34988;SDS011;21192;40.182;44.516;2023-02-15T04:11:16;42.78;;;18.55;;
34988;SDS011;21192;40.182;44.516;2023-02-15T04:13:42;47.50;;;19.60;;
34988;SDS011;21192;40.182;44.516;2023-02-15T04:16:08;51.50;;;20.88;;
34988;SDS011;21192;40.182;44.516;2023-02-15T04:21:21;42.92;;;19.38;;
34988;SDS011;21192;40.182;44.516;2023-02-15T04:24:06;59.00;;;19.60;;
34988;SDS011;21192;40.182;44.516;2023-02-15T04:26:51;47.80;;;18.75;;
34988;SDS011;21192;40.182;44.516;2023-02-15T04:29:21;52.55;;;22.52;;
34988;SDS011;21192;40.182;44.516;2023-02-15T04:31:47;49.85;;;20.65;;
34988;SDS011;21192;40.182;44.516;2023-02-15T04:34:14;56.38;;;20.92;;
34988;SDS011;21192;40.182;44.516;2023-02-15T04:36:40;46.55;;;20.63;;
34988;SDS011;21192;40.182;44.516;2023-02-15T04:39:06;44.10;;;19.38;;
34988;SDS011;21192;40.182;44.516;2023-02-15T04:41:33;46.10;;;20.17;;
34988;SDS011;21192;40.182;44.516;2023-02-15T04:43:59;50.80;;;21.50;;
34988;SDS011;21192;40.182;44.516;2023-02-15T04:46:26;47.30;;;20.13;;
34988;SDS011;21192;40.182;44.516;2023-02-15T04:48:53;47.40;;;18.42;;
34988;SDS011;21192;40.182;44.516;2023-02-15T04:51:19;52.63;;;20.67;;
34988;SDS011;21192;40.182;44.516;2023-02-15T04:53:45;46.20;;;18.50;;
34988;SDS011;21192;40.182;44.516;2023-02-15T04:56:11;48.60;;;20.02;;
34988;SDS011;21192;40.182;44.516;2023-02-15T04:58:37;52.67;;;18.88;;
34988;SDS011;21192;40.182;44.516;2023-02-15T05:01:06;51.38;;;21.23;;
34988;SDS011;21192;40.182;44.516;2023-02-15T05:03:33;46.42;;;18.90;;
34988;SDS011;21192;40.182;44.516;2023-02-15T05:05:59;54.00;;;20.40;;
34988;SDS011;21192;40.182;44.516;2023-02-15T05:08:25;49.17;;;20.20;;
34988;SDS011;21192;40.182;44.516;2023-02-15T05:10:51;46.75;;;21.52;;
34988;SDS011;21192;40.182;44.516;2023-02-15T05:13:16;57.55;;;26.33;;
34988;SDS011;21192;40.182;44.516;2023-02-15T05:15:46;64.32;;;27.73;;
34988;SDS011;21192;40.182;44.516;2023-02-15T05:18:16;62.00;;;28.30;;
34988;SDS011;21192;40.182;44.516;2023-02-15T05:20:43;80.35;;;27.95;;
34988;SDS011;21192;40.182;44.516;2023-02-15T05:23:09;52.85;;;27.77;;
34988;SDS011;21192;40.182;44.516;2023-02-15T05:25:35;57.90;;;28.23;;
34988;SDS011;21192;40.182;44.516;2023-02-15T05:28:20;55.03;;;29.08;;
34988;SDS011;21192;40.182;44.516;2023-02-15T05:30:49;61.25;;;28.88;;
34988;SDS011;21192;40.182;44.516;2023-02-15T05:33:28;55.50;;;29.55;;
34988;SDS011;21192;40.182;44.516;2023-02-15T05:35:53;65.75;;;32.20;;
34988;SDS011;21192;40.182;44.516;2023-02-15T05:38:19;61.10;;;28.88;;
34988;SDS011;21192;40.182;44.516;2023-02-15T05:40:45;67.90;;;35.40;;
34988;SDS011;21192;40.182;44.516;2023-02-15T05:43:11;64.53;;;30.30;;
34988;SDS011;21192;40.182;44.516;2023-02-15T05:45:37;64.82;;;31.10;;
34988;SDS011;21192;40.182;44.516;2023-02-15T05:48:02;56.10;;;28.65;;
34988;SDS011;21192;40.182;44.516;2023-02-15T05:50:28;55.10;;;27.73;;
34988;SDS011;21192;40.182;44.516;2023-02-15T05:52:54;57.33;;;28.63;;
34988;SDS011;21192;40.182;44.516;2023-02-15T05:55:20;61.50;;;30.27;;
34988;SDS011;21192;40.182;44.516;2023-02-15T05:57:46;57.58;;;27.05;;
34988;SDS011;21192;40.182;44.516;2023-02-15T06:00:12;48.90;;;26.73;;
34988;SDS011;21192;40.182;44.516;2023-02-15T06:02:39;50.63;;;26.77;;
34988;SDS011;21192;40.182;44.516;2023-02-15T06:05:05;45.35;;;25.15;;
34988;SDS011;21192;40.182;44.516;2023-02-15T06:07:32;45.67;;;23.50;;
34988;SDS011;21192;40.182;44.516;2023-02-15T06:09:58;44.03;;;23.05;;
34988;SDS011;21192;40.182;44.516;2023-02-15T06:12:24;47.75;;;23.30;;
34988;SDS011;21192;40.182;44.516;2023-02-15T06:14:49;49.78;;;23.90;;
34988;SDS011;21192;40.182;44.516;2023-02-15T06:17:15;41.90;;;23.42;;
34988;SDS011;21192;40.182;44.516;2023-02-15T06:19:42;45.15;;;23.23;;
34988;SDS011;21192;40.182;44.516;2023-02-15T06:22:08;51.40;;;25.75;;
34988;SDS011;21192;40.182;44.516;2023-02-15T06:24:34;37.75;;;20.48;;
34988;SDS011;21192;40.182;44.516;2023-02-15T06:26:59;41.85;;;21.55;;
34988;SDS011;21192;40.182;44.516;2023-02-15T06:29:25;47.10;;;21.92;;
34988;SDS011;21192;40.182;44.516;2023-02-15T06:31:51;47.20;;;21.55;;
34988;SDS011;21192;40.182;44.516;2023-02-15T06:34:17;43.13;;;21.25;;
34988;SDS011;21192;40.182;44.516;2023-02-15T06:36:43;42.53;;;20.15;;
34988;SDS011;21192;40.182;44.516;2023-02-15T06:39:08;46.75;;;20.65;;
34988;SDS011;21192;40.182;44.516;2023-02-15T06:41:34;49.10;;;21.83;;
34988;SDS011;21192;40.182;44.516;2023-02-15T06:44:00;49.75;;;20.45;;
34988;SDS011;21192;40.182;44.516;2023-02-15T06:46:26;52.25;;;22.65;;
34988;SDS011;21192;40.182;44.516;2023-02-15T06:48:52;46.90;;;19.38;;
34988;SDS011;21192;40.182;44.516;2023-02-15T06:51:18;35.72;;;18.33;;
34988;SDS011;21192;40.182;44.516;2023-02-15T06:53:43;51.35;;;19.88;;
34988;SDS011;21192;40.182;44.516;2023-02-15T06:56:10;58.25;;;22.88;;
34988;SDS011;21192;40.182;44.516;2023-02-15T06:58:36;46.33;;;21.85;;
34988;SDS011;21192;40.182;44.516;2023-02-15T07:01:06;60.03;;;26.55;;
34988;SDS011;21192;40.182;44.516;2023-02-15T07:03:34;55.90;;;24.95;;
34988;SDS011;21192;40.182;44.516;2023-02-15T07:06:01;53.30;;;25.00;;
34988;SDS011;21192;40.182;44.516;2023-02-15T07:08:31;56.47;;;25.90;;
34988;SDS011;21192;40.182;44.516;2023-02-15T07:10:57;54.15;;;27.00;;
34988;SDS011;21192;40.182;44.516;2023-02-15T07:13:42;56.10;;;25.42;;
34988;SDS011;21192;40.182;44.516;2023-02-15T07:16:08;57.40;;;28.00;;
34988;SDS011;21192;40.182;44.516;2023-02-15T07:18:35;99.00;;;53.97;;
34988;SDS011;21192;40.182;44.516;2023-02-15T07:21:01;71.32;;;35.88;;
34988;SDS011;21192;40.182;44.516;2023-02-15T07:23:27;55.47;;;26.80;;
34988;SDS011;21192;40.182;44.516;2023-02-15T07:25:57;97.25;;;45.90;;
34988;SDS011;21192;40.182;44.516;2023-02-15T07:28:23;70.78;;;36.10;;
34988;SDS011;21192;40.182;44.516;2023-02-15T07:30:49;64.57;;;28.63;;
34988;SDS011;21192;40.182;44.516;2023-02-15T07:33:16;79.25;;;32.80;;
34988;SDS011;21192;40.182;44.516;2023-02-15T07:35:48;62.53;;;28.35;;
34988;SDS011;21192;40.182;44.516;2023-02-15T07:38:15;60.90;;;30.60;;
34988;SDS011;21192;40.182;44.516;2023-02-15T07:40:41;42.88;;;24.42;;
34988;SDS011;21192;40.182;44.516;2023-02-15T07:43:08;54.85;;;25.17;;
34988;SDS011;21192;40.182;44.516;2023-02-15T07:45:34;60.80;;;27.70;;
34988;SDS011;21192;40.182;44.516;2023-02-15T07:48:00;69.57;;;31.52;;
34988;SDS011;21192;40.182;44.516;2023-02-15T07:50:27;65.32;;;29.80;;
34988;SDS011;21192;40.182;44.516;2023-02-15T07:52:53;76.82;;;28.25;;
34988;SDS011;21192;40.182;44.516;2023-02-15T07:55:18;81.28;;;35.67;;
34988;SDS011;21192;40.182;44.516;2023-02-15T07:57:45;95.97;;;39.88;;
34988;SDS011;21192;40.182;44.516;2023-02-15T08:00:12;54.13;;;27.33;;
34988;SDS011;21192;40.182;44.516;2023-02-15T08:02:40;57.47;;;27.83;;
34988;SDS011;21192;40.182;44.516;2023-02-15T08:05:06;62.28;;;28.77;;
34988;SDS011;21192;40.182;44.516;2023-02-15T08:07:32;59.83;;;27.92;;
34988;SDS011;21192;40.182;44.516;2023-02-15T08:09:58;56.75;;;25.55;;
34988;SDS011;21192;40.182;44.516;2023-02-15T08:12:27;64.63;;;28.73;;
34988;SDS011;21192;40.182;44.516;2023-02-15T08:14:53;60.10;;;26.17;;
34988;SDS011;21192;40.182;44.516;2023-02-15T08:17:19;61.83;;;28.33;;
34988;SDS011;21192;40.182;44.516;2023-02-15T08:19:45;70.15;;;27.98;;
34988;SDS011;21192;40.182;44.516;2023-02-15T08:22:12;60.95;;;26.08;;
34988;SDS011;21192;40.182;44.516;2023-02-15T08:24:39;53.35;;;26.13;;
34988;SDS011;21192;40.182;44.516;2023-02-15T08:27:05;55.92;;;25.65;;
34988;SDS011;21192;40.182;44.516;2023-02-15T08:29:33;57.15;;;27.80;;
34988;SDS011;21192;40.182;44.516;2023-02-15T08:32:02;63.20;;;27.20;;
34988;SDS011;21192;40.182;44.516;2023-02-15T08:34:31;53.08;;;27.25;;
34988;SDS011;21192;40.182;44.516;2023-02-15T08:36:59;56.40;;;26.48;;
34988;SDS011;21192;40.182;44.516;2023-02-15T08:39:25;55.83;;;25.98;;
34988;SDS011;21192;40.182;44.516;2023-02-15T08:41:51;139.82;;;69.90;;
34988;SDS011;21192;40.182;44.516;2023-02-15T08:44:18;68.03;;;36.50;;
34988;SDS011;21192;40.182;44.516;2023-02-15T08:46:45;52.90;;;27.20;;
34988;SDS011;21192;40.182;44.516;2023-02-15T08:49:13;53.33;;;27.42;;
34988;SDS011;21192;40.182;44.516;2023-02-15T08:51:41;57.25;;;25.88;;
34988;SDS011;21192;40.182;44.516;2023-02-15T08:54:08;63.85;;;31.90;;
34988;SDS011;21192;40.182;44.516;2023-02-15T08:56:38;53.80;;;27.45;;
34988;SDS011;21192;40.182;44.516;2023-02-15T08:59:06;58.50;;;28.48;;
34988;SDS011;21192;40.182;44.516;2023-02-15T09:01:36;63.08;;;30.42;;
34988;SDS011;21192;40.182;44.516;2023-02-15T09:04:05;108.15;;;58.88;;
34988;SDS011;21192;40.182;44.516;2023-02-15T09:06:38;71.20;;;38.28;;
34988;SDS011;21192;40.182;44.516;2023-02-15T09:09:05;63.20;;;30.50;;
34988;SDS011;21192;40.182;44.516;2023-02-15T09:11:33;54.22;;;24.60;;
34988;SDS011;21192;40.182;44.516;2023-02-15T09:14:05;53.47;;;26.45;;
34988;SDS011;21192;40.182;44.516;2023-02-15T09:16:34;58.40;;;25.00;;
34988;SDS011;21192;40.182;44.516;2023-02-15T09:19:01;47.15;;;24.55;;
34988;SDS011;21192;40.182;44.516;2023-02-15T09:21:30;55.30;;;25.85;;
34988;SDS011;21192;40.182;44.516;2023-02-15T09:23:57;48.92;;;22.27;;
34988;SDS011;21192;40.182;44.516;2023-02-15T09:26:25;34.63;;;18.15;;
34988;SDS011;21192;40.182;44.516;2023-02-15T09:28:54;19.70;;;11.35;;
34988;SDS011;21192;40.182;44.516;2023-02-15T09:31:22;23.23;;;10.13;;
34988;SDS011;21192;40.182;44.516;2023-02-15T09:33:50;30.90;;;13.30;;
34988;SDS011;21192;40.182;44.516;2023-02-15T09:36:17;30.02;;;16.15;;
34988;SDS011;21192;40.182;44.516;2023-02-15T09:38:46;32.95;;;15.55;;
34988;SDS011;21192;40.182;44.516;2023-02-15T09:44:16;26.83;;;12.90;;
34988;SDS011;21192;40.182;44.516;2023-02-15T09:52:43;34.85;;;15.20;;
34988;SDS011;21192;40.182;44.516;2023-02-15T10:28:20;48.13;;;21.92;;
34988;SDS011;21192;40.182;44.516;2023-02-15T10:30:53;44.92;;;20.67;;
34988;SDS011;21192;40.182;44.516;2023-02-15T10:33:40;48.03;;;22.63;;
34988;SDS011;21192;40.182;44.516;2023-02-15T10:43:52;52.10;;;23.33;;
34988;SDS011;21192;40.182;44.516;2023-02-15T10:49:39;48.75;;;22.48;;
34988;SDS011;21192;40.182;44.516;2023-02-15T10:55:10;74.75;;;25.27;;
34988;SDS011;21192;40.182;44.516;2023-02-15T10:58:26;74.13;;;26.67;;
34988;SDS011;21192;40.182;44.516;2023-02-15T11:01:02;180.35;;;37.47;;
34988;SDS011;21192;40.182;44.516;2023-02-15T11:06:36;94.90;;;27.15;;
34988;SDS011;21192;40.182;44.516;2023-02-15T11:09:17;47.88;;;24.23;;
34988;SDS011;21192;40.182;44.516;2023-02-15T11:11:50;56.80;;;28.10;;
34988;SDS011;21192;40.182;44.516;2023-02-15T11:14:38;46.00;;;24.63;;
34988;SDS011;21192;40.182;44.516;2023-02-15T11:17:16;56.65;;;28.70;;
34988;SDS011;21192;40.182;44.516;2023-02-15T11:19:58;47.35;;;25.77;;
34988;SDS011;21192;40.182;44.516;2023-02-15T11:22:30;47.75;;;24.33;;
34988;SDS011;21192;40.182;44.516;2023-02-15T11:24:59;42.75;;;24.42;;
34988;SDS011;21192;40.182;44.516;2023-02-15T11:27:31;77.05;;;29.48;;
34988;SDS011;21192;40.182;44.516;2023-02-15T11:30:04;49.33;;;24.50;;
34988;SDS011;21192;40.182;44.516;2023-02-15T11:32:43;46.90;;;25.60;;
34988;SDS011;21192;40.182;44.516;2023-02-15T11:40:35;50.15;;;24.92;;
34988;SDS011;21192;40.182;44.516;2023-02-15T11:43:06;59.92;;;28.10;;
34988;SDS011;21192;40.182;44.516;2023-02-15T11:45:41;83.25;;;30.23;;
34988;SDS011;21192;40.182;44.516;2023-02-15T11:48:10;67.38;;;32.83;;
34988;SDS011;21192;40.182;44.516;2023-02-15T11:50:38;95.40;;;55.53;;
34988;SDS011;21192;40.182;44.516;2023-02-15T11:53:16;48.05;;;26.10;;
34988;SDS011;21192;40.182;44.516;2023-02-15T11:55:49;44.95;;;23.38;;
34988;SDS011;21192;40.182;44.516;2023-02-15T12:01:10;98.80;;;46.25;;
34988;SDS011;21192;40.182;44.516;2023-02-15T12:04:01;56.80;;;30.25;;
34988;SDS011;21192;40.182;44.516;2023-02-15T12:06:35;69.85;;;32.75;;
34988;SDS011;21192;40.182;44.516;2023-02-15T12:11:36;49.97;;;25.27;;
34988;SDS011;21192;40.182;44.516;2023-02-15T12:14:11;42.30;;;25.60;;
34988;SDS011;21192;40.182;44.516;2023-02-15T12:16:42;49.95;;;22.73;;
34988;SDS011;21192;40.182;44.516;2023-02-15T12:19:32;39.08;;;21.30;;
34988;SDS011;21192;40.182;44.516;2023-02-15T12:21:57;56.90;;;25.27;;
34988;SDS011;21192;40.182;44.516;2023-02-15T12:24:37;44.92;;;24.08;;
34988;SDS011;21192;40.182;44.516;2023-02-15T12:27:16;48.55;;;25.20;;
34988;SDS011;21192;40.182;44.516;2023-02-15T12:29:55;60.75;;;30.75;;
34988;SDS011;21192;40.182;44.516;2023-02-15T12:35:42;42.80;;;21.38;;
34988;SDS011;21192;40.182;44.516;2023-02-15T12:40:35;46.53;;;23.33;;
34988;SDS011;21192;40.182;44.516;2023-02-15T12:43:02;44.05;;;26.35;;
34988;SDS011;21192;40.182;44.516;2023-02-15T12:45:34;40.33;;;24.13;;
34988;SDS011;21192;40.182;44.516;2023-02-15T12:50:49;43.75;;;22.95;;
34988;SDS011;21192;40.182;44.516;2023-02-15T12:53:20;52.17;;;30.65;;
34988;SDS011;21192;40.182;44.516;2023-02-15T12:55:56;41.00;;;23.02;;
34988;SDS011;21192;40.182;44.516;2023-02-15T12:58:30;34.80;;;21.60;;
34988;SDS011;21192;40.182;44.516;2023-02-15T13:01:11;51.78;;;24.83;;
34988;SDS011;21192;40.182;44.516;2023-02-15T13:06:24;53.08;;;25.00;;
34988;SDS011;21192;40.182;44.516;2023-02-15T13:08:52;50.45;;;23.08;;
34988;SDS011;21192;40.182;44.516;2023-02-15T13:11:29;39.88;;;22.60;;
34988;SDS011;21192;40.182;44.516;2023-02-15T13:14:18;39.65;;;22.25;;
34988;SDS011;21192;40.182;44.516;2023-02-15T13:16:56;45.40;;;22.75;;
34988;SDS011;21192;40.182;44.516;2023-02-15T13:19:29;41.35;;;23.05;;
34988;SDS011;21192;40.182;44.516;2023-02-15T13:22:19;44.80;;;22.90;;
34988;SDS011;21192;40.182;44.516;2023-02-15T13:24:59;46.83;;;26.40;;
34988;SDS011;21192;40.182;44.516;2023-02-15T13:27:39;50.53;;;26.17;;
34988;SDS011;21192;40.182;44.516;2023-02-15T13:30:22;54.33;;;27.65;;
34988;SDS011;21192;40.182;44.516;2023-02-15T13:33:01;44.08;;;24.40;;
34988;SDS011;21192;40.182;44.516;2023-02-15T13:35:42;48.60;;;27.27;;
34988;SDS011;21192;40.182;44.516;2023-02-15T13:41:03;48.67;;;26.88;;
34988;SDS011;21192;40.182;44.516;2023-02-15T13:51:31;51.22;;;26.90;;
34988;SDS011;21192;40.182;44.516;2023-02-15T14:16:39;50.90;;;25.17;;
34988;SDS011;21192;40.182;44.516;2023-02-15T14:19:25;46.88;;;25.35;;
34988;SDS011;21192;40.182;44.516;2023-02-15T14:22:02;48.03;;;25.48;;
34988;SDS011;21192;40.182;44.516;2023-02-15T14:27:04;50.05;;;24.10;;
34988;SDS011;21192;40.182;44.516;2023-02-15T14:32:12;55.40;;;26.88;;
34988;SDS011;21192;40.182;44.516;2023-02-15T14:34:57;48.28;;;26.33;;
34988;SDS011;21192;40.182;44.516;2023-02-15T14:54:09;46.92;;;24.95;;
34988;SDS011;21192;40.182;44.516;2023-02-15T15:12:42;52.72;;;24.55;;
34988;SDS011;21192;40.182;44.516;2023-02-15T15:17:53;58.55;;;23.63;;
34988;SDS011;21192;40.182;44.516;2023-02-15T15:25:42;53.10;;;26.85;;
34988;SDS011;21192;40.182;44.516;2023-02-15T15:48:40;43.00;;;22.77;;
34988;SDS011;21192;40.182;44.516;2023-02-15T15:51:11;40.53;;;23.38;;
34988;SDS011;21192;40.182;44.516;2023-02-15T15:53:47;44.50;;;24.73;;
34988;SDS011;21192;40.182;44.516;2023-02-15T15:56:39;49.63;;;24.85;;
34988;SDS011;21192;40.182;44.516;2023-02-15T15:59:05;63.00;;;29.95;;
34988;SDS011;21192;40.182;44.516;2023-02-15T16:01:41;60.83;;;30.17;;
34988;SDS011;21192;40.182;44.516;2023-02-15T16:04:12;72.28;;;32.00;;
34988;SDS011;21192;40.182;44.516;2023-02-15T16:06:39;71.80;;;32.38;;
34988;SDS011;21192;40.182;44.516;2023-02-15T16:09:13;59.85;;;30.55;;
34988;SDS011;21192;40.182;44.516;2023-02-15T16:11:49;69.85;;;31.27;;
34988;SDS011;21192;40.182;44.516;2023-02-15T16:14:29;56.58;;;29.58;;
34988;SDS011;21192;40.182;44.516;2023-02-15T16:16:58;55.10;;;29.73;;
34988;SDS011;21192;40.182;44.516;2023-02-15T16:19:27;53.13;;;29.85;;
34988;SDS011;21192;40.182;44.516;2023-02-15T16:21:58;53.90;;;29.10;;
34988;SDS011;21192;40.182;44.516;2023-02-15T16:24:35;53.83;;;29.92;;
34988;SDS011;21192;40.182;44.516;2023-02-15T16:29:46;53.97;;;30.38;;
34988;SDS011;21192;40.182;44.516;2023-02-15T16:32:19;61.95;;;34.08;;
34988;SDS011;21192;40.182;44.516;2023-02-15T16:34:53;65.18;;;34.38;;
34988;SDS011;21192;40.182;44.516;2023-02-15T16:37:31;68.22;;;34.42;;
34988;SDS011;21192;40.182;44.516;2023-02-15T16:39:58;57.13;;;31.33;;
34988;SDS011;21192;40.182;44.516;2023-02-15T16:42:24;68.90;;;34.92;;
34988;SDS011;21192;40.182;44.516;2023-02-15T16:44:53;66.88;;;33.20;;
34988;SDS011;21192;40.182;44.516;2023-02-15T16:47:29;59.25;;;32.00;;
34988;SDS011;21192;40.182;44.516;2023-02-15T16:49:59;54.47;;;30.50;;
34988;SDS011;21192;40.182;44.516;2023-02-15T16:52:27;57.53;;;30.90;;
34988;SDS011;21192;40.182;44.516;2023-02-15T16:54:55;55.75;;;31.25;;
34988;SDS011;21192;40.182;44.516;2023-02-15T16:57:25;61.10;;;30.30;;
34988;SDS011;21192;40.182;44.516;2023-02-15T16:59:54;62.38;;;31.95;;
34988;SDS011;21192;40.182;44.516;2023-02-15T17:02:29;63.17;;;33.47;;
34988;SDS011;21192;40.182;44.516;2023-02-15T17:05:01;55.00;;;30.33;;
34988;SDS011;21192;40.182;44.516;2023-02-15T17:07:27;58.72;;;30.50;;
34988;SDS011;21192;40.182;44.516;2023-02-15T17:09:54;58.45;;;29.85;;
34988;SDS011;21192;40.182;44.516;2023-02-15T17:18:17;47.22;;;25.63;;
34988;SDS011;21192;40.182;44.516;2023-02-15T17:20:46;42.70;;;23.35;;
34988;SDS011;21192;40.182;44.516;2023-02-15T17:26:01;41.35;;;21.70;;
34988;SDS011;21192;40.182;44.516;2023-02-15T17:28:40;35.17;;;20.83;;
34988;SDS011;21192;40.182;44.516;2023-02-15T17:31:12;38.63;;;20.48;;
34988;SDS011;21192;40.182;44.516;2023-02-15T17:33:41;43.15;;;23.30;;
34988;SDS011;21192;40.182;44.516;2023-02-15T17:36:17;45.78;;;23.35;;
34988;SDS011;21192;40.182;44.516;2023-02-15T17:41:29;48.15;;;27.08;;
34988;SDS011;21192;40.182;44.516;2023-02-15T17:43:58;42.47;;;23.20;;
34988;SDS011;21192;40.182;44.516;2023-02-15T17:46:24;46.50;;;26.23;;
34988;SDS011;21192;40.182;44.516;2023-02-15T17:48:53;32.03;;;22.05;;
34988;SDS011;21192;40.182;44.516;2023-02-15T17:51:21;47.40;;;23.15;;
34988;SDS011;21192;40.182;44.516;2023-02-15T17:53:47;43.03;;;23.00;;
34988;SDS011;21192;40.182;44.516;2023-02-15T17:56:32;43.22;;;22.08;;
34988;SDS011;21192;40.182;44.516;2023-02-15T17:59:00;34.40;;;22.50;;
34988;SDS011;21192;40.182;44.516;2023-02-15T18:01:26;37.75;;;20.98;;
34988;SDS011;21192;40.182;44.516;2023-02-15T18:04:11;44.70;;;21.77;;
34988;SDS011;21192;40.182;44.516;2023-02-15T18:06:57;42.15;;;22.67;;
34988;SDS011;21192;40.182;44.516;2023-02-15T18:09:42;45.10;;;22.65;;
34988;SDS011;21192;40.182;44.516;2023-02-15T18:12:28;43.65;;;22.85;;
34988;SDS011;21192;40.182;44.516;2023-02-15T18:14:56;42.00;;;23.90;;
34988;SDS011;21192;40.182;44.516;2023-02-15T18:17:27;41.25;;;24.20;;
34988;SDS011;21192;40.182;44.516;2023-02-15T18:19:56;36.70;;;23.27;;
34988;SDS011;21192;40.182;44.516;2023-02-15T18:22:22;42.40;;;24.20;;
34988;SDS011;21192;40.182;44.516;2023-02-15T18:24:48;36.13;;;22.63;;
34988;SDS011;21192;40.182;44.516;2023-02-15T18:27:15;41.17;;;24.13;;
34988;SDS011;21192;40.182;44.516;2023-02-15T18:29:41;40.53;;;24.65;;
34988;SDS011;21192;40.182;44.516;2023-02-15T18:32:14;41.35;;;25.85;;
34988;SDS011;21192;40.182;44.516;2023-02-15T18:34:51;46.30;;;25.92;;
34988;SDS011;21192;40.182;44.516;2023-02-15T18:37:20;47.13;;;26.45;;
34988;SDS011;21192;40.182;44.516;2023-02-15T18:39:50;43.00;;;24.25;;
34988;SDS011;21192;40.182;44.516;2023-02-15T18:42:27;40.10;;;24.80;;
34988;SDS011;21192;40.182;44.516;2023-02-15T18:45:03;35.03;;;21.10;;
34988;SDS011;21192;40.182;44.516;2023-02-15T18:47:38;45.40;;;25.13;;
34988;SDS011;21192;40.182;44.516;2023-02-15T18:50:05;44.45;;;25.75;;
34988;SDS011;21192;40.182;44.516;2023-02-15T18:52:32;35.08;;;23.10;;
34988;SDS011;21192;40.182;44.516;2023-02-15T18:55:02;33.30;;;20.60;;
34988;SDS011;21192;40.182;44.516;2023-02-15T18:57:37;31.63;;;20.40;;
34988;SDS011;21192;40.182;44.516;2023-02-15T19:00:02;28.75;;;18.10;;
34988;SDS011;21192;40.182;44.516;2023-02-15T19:02:29;28.95;;;17.30;;
34988;SDS011;21192;40.182;44.516;2023-02-15T19:04:55;23.40;;;15.20;;
34988;SDS011;21192;40.182;44.516;2023-02-15T19:07:22;25.95;;;15.40;;
34988;SDS011;21192;40.182;44.516;2023-02-15T19:09:57;26.65;;;16.77;;
34988;SDS011;21192;40.182;44.516;2023-02-15T19:12:28;27.45;;;16.75;;
34988;SDS011;21192;40.182;44.516;2023-02-15T19:14:55;26.85;;;15.95;;
34988;SDS011;21192;40.182;44.516;2023-02-15T19:17:21;26.85;;;15.07;;
34988;SDS011;21192;40.182;44.516;2023-02-15T19:19:48;22.10;;;13.73;;
34988;SDS011;21192;40.182;44.516;2023-02-15T19:22:26;30.52;;;16.05;;
34988;SDS011;21192;40.182;44.516;2023-02-15T19:24:55;26.77;;;16.88;;
34988;SDS011;21192;40.182;44.516;2023-02-15T19:27:33;30.95;;;18.65;;
34988;SDS011;21192;40.182;44.516;2023-02-15T19:30:04;37.60;;;19.08;;
34988;SDS011;21192;40.182;44.516;2023-02-15T19:32:52;34.03;;;18.08;;
34988;SDS011;21192;40.182;44.516;2023-02-15T19:35:20;32.45;;;19.05;;
34988;SDS011;21192;40.182;44.516;2023-02-15T19:37:48;28.13;;;16.88;;
34988;SDS011;21192;40.182;44.516;2023-02-15T19:40:20;30.88;;;16.95;;
34988;SDS011;21192;40.182;44.516;2023-02-15T19:42:47;33.65;;;16.75;;
34988;SDS011;21192;40.182;44.516;2023-02-15T19:45:14;28.92;;;17.23;;
34988;SDS011;21192;40.182;44.516;2023-02-15T19:47:41;27.52;;;16.77;;
34988;SDS011;21192;40.182;44.516;2023-02-15T19:50:12;26.00;;;16.83;;
34988;SDS011;21192;40.182;44.516;2023-02-15T19:52:45;29.05;;;15.95;;